createdAt,value
2022-10-22T00:00:46.060Z,101921.50
2022-10-22T00:04:46.070Z,101914.34
2022-10-22T00:08:45.937Z,101904.38
2022-10-22T00:12:48.274Z,101897.84
2022-10-22T00:16:47.786Z,101892.59
2022-10-22T00:20:46.997Z,101883.69
2022-10-22T00:24:46.511Z,101876.44
2022-10-22T00:28:48.780Z,101876.06
2022-10-22T00:32:48.337Z,101875.38
2022-10-22T00:36:48.263Z,101879.31
2022-10-22T00:40:48.290Z,101884.69
2022-10-22T00:45:09.377Z,101879.59
2022-10-22T00:49:09.206Z,101870.72
2022-10-22T00:53:15.296Z,101866.66
2022-10-22T00:57:14.945Z,101828.75
2022-10-22T01:01:22.563Z,101857.25
2022-10-22T01:05:23.061Z,101848.69
2022-10-22T01:09:32.404Z,101855.50
2022-10-22T01:13:40.934Z,101849.22
2022-10-22T01:17:51.710Z,101833.78
2022-10-22T01:21:59.131Z,101843.13
2022-10-22T01:26:05.912Z,101833.72
2022-10-22T01:30:09.575Z,101838.28
2022-10-22T01:34:12.110Z,101843.59
2022-10-22T01:38:15.695Z,101840.22
2022-10-22T01:42:16.032Z,101825.09
2022-10-22T01:46:20.279Z,101836.00
2022-10-22T01:50:37.808Z,101820.84
2022-10-22T01:54:44.606Z,101839.34
2022-10-22T01:58:54.342Z,101832.03
2022-10-22T02:03:04.308Z,101825.69
2022-10-22T02:07:08.526Z,101825.25
2022-10-22T02:11:08.866Z,101832.66
2022-10-22T02:15:12.175Z,101815.78
2022-10-22T02:19:21.702Z,101814.00
2022-10-22T02:23:23.185Z,101826.78
2022-10-22T02:27:28.842Z,101825.59
2022-10-22T02:31:32.965Z,101819.09
2022-10-22T02:35:35.242Z,101813.78
2022-10-22T02:39:37.934Z,101809.44
2022-10-22T02:43:43.360Z,101788.47
2022-10-22T02:47:43.732Z,101807.97
2022-10-22T02:51:45.622Z,101803.53
2022-10-22T02:55:45.214Z,101802.31
2022-10-22T02:59:44.458Z,101789.88
2022-10-22T03:03:43.967Z,101790.63
2022-10-22T03:07:45.302Z,101793.75
2022-10-22T03:11:44.932Z,101782.59
2022-10-22T03:15:44.232Z,101782.53
2022-10-22T03:19:43.522Z,101785.94
2022-10-22T03:23:45.819Z,101778.94
2022-10-22T03:27:45.775Z,101787.94
2022-10-22T03:31:45.550Z,101754.53
2022-10-22T03:35:47.957Z,101781.84
2022-10-22T03:39:49.974Z,101795.78
2022-10-22T03:43:52.614Z,101770.94
2022-10-22T03:47:52.599Z,101781.47
2022-10-22T03:51:52.245Z,101765.06
2022-10-22T03:55:53.962Z,101783.53
2022-10-22T03:59:53.464Z,101740.16
2022-10-22T04:03:53.151Z,101803.81
2022-10-22T04:07:52.933Z,101804.53
2022-10-22T04:11:54.630Z,101797.63
2022-10-22T04:15:54.703Z,101783.53
2022-10-22T04:19:54.360Z,101794.75
2022-10-22T04:23:54.709Z,101790.41
2022-10-22T04:27:56.271Z,101788.28
2022-10-22T04:31:55.843Z,101800.13
2022-10-22T04:35:54.811Z,101789.28
2022-10-22T04:39:54.242Z,101789.16
2022-10-22T04:43:56.686Z,101781.38
2022-10-22T04:47:56.437Z,101782.91
2022-10-22T04:51:55.978Z,101801.03
2022-10-22T04:55:55.338Z,101805.91
2022-10-22T04:59:57.161Z,101809.09
2022-10-22T05:03:58.342Z,101781.28
2022-10-22T05:07:57.932Z,101818.78
2022-10-22T05:11:57.658Z,101807.28
2022-10-22T05:16:03.363Z,101819.28
2022-10-22T05:20:03.038Z,101814.19
2022-10-22T05:24:03.729Z,101806.25
2022-10-22T05:28:03.346Z,101770.56
2022-10-22T05:32:05.372Z,101812.03
2022-10-22T05:36:07.238Z,101814.03
2022-10-22T05:40:19.275Z,101824.00
2022-10-22T05:44:26.459Z,101817.38
2022-10-22T05:48:28.375Z,101819.09
2022-10-22T05:52:28.671Z,101825.50
2022-10-22T05:56:31.773Z,101808.81
2022-10-22T06:00:31.732Z,101807.81
2022-10-22T06:04:33.642Z,101796.63
2022-10-22T06:08:33.718Z,101799.78
2022-10-22T06:12:33.454Z,101801.28
2022-10-22T06:16:33.842Z,101807.22
2022-10-22T06:20:36.026Z,101792.63
2022-10-22T06:24:35.679Z,101766.22
2022-10-22T06:28:37.722Z,101765.34
2022-10-22T06:32:37.888Z,101778.44
2022-10-22T06:40:43.442Z,101775.22
2022-10-22T06:44:46.005Z,101771.09
2022-10-22T06:48:52.795Z,101750.84
2022-10-22T06:53:14.756Z,101768.28
2022-10-22T06:57:26.914Z,101736.47
2022-10-22T07:01:45.256Z,101765.88
2022-10-22T07:06:03.036Z,101766.00
2022-10-22T07:10:12.146Z,101773.03
2022-10-22T07:15:04.198Z,101758.34
2022-10-22T07:19:33.626Z,101758.53
2022-10-22T07:23:34.029Z,101700.69
2022-10-22T07:27:48.795Z,101744.13
2022-10-22T07:31:50.187Z,101722.13
2022-10-22T07:42:25.683Z,101684.03
2022-10-22T08:45:05.406Z,101737.03
2022-10-22T08:49:10.824Z,101711.69
2022-10-22T08:53:18.420Z,101721.47
2022-10-22T08:57:45.700Z,101731.09
2022-10-22T09:01:53.448Z,101703.94
2022-10-22T09:06:00.966Z,101726.81
2022-10-22T09:10:02.882Z,101737.41
2022-10-22T09:14:03.653Z,101730.38
2022-10-22T09:18:19.642Z,101744.44
2022-10-22T09:22:29.620Z,101728.56
2022-10-22T09:26:33.621Z,101733.88
2022-10-22T09:30:37.575Z,101725.03
2022-10-22T09:34:41.218Z,101727.69
2022-10-22T09:38:46.746Z,101721.53
2022-10-22T09:42:50.058Z,101708.19
2022-10-22T09:46:49.840Z,101710.00
2022-10-22T09:51:10.407Z,101716.09
2022-10-22T09:55:18.194Z,101705.56
2022-10-22T09:59:19.922Z,101705.53
2022-10-22T10:03:21.794Z,101705.63
2022-10-22T10:07:25.530Z,101688.97
2022-10-22T10:11:30.616Z,101687.94
2022-10-22T10:15:36.246Z,101676.28
2022-10-22T10:19:49.239Z,101665.63
2022-10-22T10:23:59.810Z,101662.84
2022-10-22T10:28:05.776Z,101657.50
2022-10-22T10:32:24.314Z,101662.78
2022-10-22T10:36:37.745Z,101659.22
2022-10-22T10:40:52.362Z,101654.78
2022-10-22T10:45:04.933Z,101639.41
2022-10-22T10:49:11.901Z,101631.22
2022-10-22T10:53:23.059Z,101625.72
2022-10-22T10:57:41.076Z,101619.44
2022-10-22T11:01:56.891Z,101613.47
2022-10-22T11:06:00.607Z,101568.44
2022-10-22T11:10:06.426Z,101587.03
2022-10-22T11:14:15.422Z,101561.22
2022-10-22T11:18:22.537Z,101554.13
2022-10-22T11:22:27.992Z,101547.81
2022-10-22T11:26:37.049Z,101565.16
2022-10-22T11:30:40.213Z,101565.94
2022-10-22T11:34:47.446Z,101523.53
2022-10-22T11:38:46.646Z,101515.81
2022-10-22T11:42:50.019Z,101537.69
2022-10-22T11:46:58.255Z,101527.44
2022-10-22T11:50:59.938Z,101480.63
2022-10-22T11:55:03.474Z,101508.13
2022-10-22T11:59:03.174Z,101497.16
2022-10-22T12:03:18.708Z,101479.78
2022-10-22T12:07:35.038Z,101470.59
2022-10-22T12:11:39.697Z,101473.41
2022-10-22T12:15:49.277Z,101463.75
2022-10-22T12:19:53.088Z,101470.50
2022-10-22T12:23:53.685Z,101468.16
2022-10-22T12:27:57.087Z,101451.25
2022-10-22T12:31:57.471Z,101446.22
2022-10-22T12:36:03.783Z,101448.88
2022-10-22T12:40:03.465Z,101450.69
2022-10-22T12:44:04.168Z,101442.84
2022-10-22T12:48:06.321Z,101436.44
2022-10-22T12:52:14.920Z,101429.72
2022-10-22T12:56:18.479Z,101433.41
2022-10-22T13:00:26.972Z,101407.47
2022-10-22T13:04:38.292Z,101394.72
2022-10-22T13:08:41.440Z,101397.19
2022-10-22T13:12:40.775Z,101414.97
2022-10-22T13:16:50.757Z,101392.50
2022-10-22T13:20:55.608Z,101402.03
2022-10-22T13:24:59.405Z,101389.41
2022-10-22T13:29:00.774Z,101396.63
2022-10-22T13:33:02.371Z,101397.47
2022-10-22T13:37:03.428Z,101399.50
2022-10-22T13:41:05.338Z,101394.19
2022-10-22T13:45:04.905Z,101373.16
2022-10-22T13:49:04.455Z,101395.91
2022-10-22T13:53:05.148Z,101394.31
2022-10-22T13:57:10.314Z,101360.00
2022-10-22T14:01:18.676Z,101375.03
2022-10-22T14:05:19.354Z,101368.28
2022-10-22T14:09:23.963Z,101360.72
2022-10-22T14:13:26.274Z,101362.38
2022-10-22T14:17:25.341Z,101347.56
2022-10-22T14:21:25.100Z,101370.31
2022-10-22T14:25:31.000Z,101379.97
2022-10-22T14:29:32.566Z,101376.75
2022-10-22T14:33:34.614Z,101362.84
2022-10-22T14:37:34.204Z,101367.31
2022-10-22T14:41:34.187Z,101361.75
2022-10-22T14:45:35.841Z,101375.00
2022-10-22T14:49:35.361Z,101364.91
2022-10-22T14:53:35.090Z,101361.38
2022-10-22T14:57:35.010Z,101351.66
2022-10-22T15:01:36.755Z,101355.00
2022-10-22T15:05:36.254Z,101341.97
2022-10-22T15:09:35.842Z,101332.94
2022-10-22T15:13:36.095Z,101339.19
2022-10-22T15:17:37.707Z,101337.53
2022-10-22T15:21:37.252Z,101330.38
2022-10-22T15:25:36.913Z,101338.94
2022-10-22T15:29:36.553Z,101374.03
2022-10-22T15:33:38.179Z,101372.31
2022-10-22T15:37:38.348Z,101357.81
2022-10-22T15:41:38.278Z,101375.47
2022-10-22T15:45:37.955Z,101366.44
2022-10-22T15:49:41.418Z,101346.63
2022-10-22T15:53:41.594Z,101369.38
2022-10-22T15:57:41.603Z,101391.63
2022-10-22T16:01:42.250Z,101377.19
2022-10-22T16:05:51.307Z,101390.84
2022-10-22T16:09:52.076Z,101364.88
2022-10-22T16:13:56.370Z,101366.38
2022-10-22T16:17:55.408Z,101333.75
2022-10-22T16:21:59.049Z,101375.59
2022-10-22T16:25:58.610Z,101369.53
2022-10-22T16:29:58.285Z,101382.19
2022-10-22T16:33:57.936Z,101346.59
2022-10-22T16:38:00.072Z,101355.94
2022-10-22T16:41:59.659Z,101350.53
2022-10-22T16:45:59.171Z,101344.41
2022-10-22T16:50:00.438Z,101328.88
2022-10-22T16:54:02.923Z,101373.13
2022-10-22T16:58:04.145Z,101350.94
2022-10-22T17:06:05.086Z,101362.47
2022-10-22T17:10:08.585Z,101372.47
2022-10-22T17:14:08.359Z,101346.31
2022-10-22T17:18:07.974Z,101368.00
2022-10-22T17:22:07.727Z,101369.78
2022-10-22T17:26:15.203Z,101368.00
2022-10-22T17:30:17.260Z,101373.31
2022-10-22T17:34:19.037Z,101381.25
2022-10-22T17:38:18.287Z,101386.38
2022-10-22T17:42:20.170Z,101392.41
2022-10-22T17:46:22.254Z,101366.84
2022-10-22T17:50:21.649Z,101367.31
2022-10-22T17:54:21.228Z,101371.69
2022-10-22T17:58:22.953Z,101356.81
2022-10-22T18:02:22.589Z,101359.72
2022-10-22T18:06:22.747Z,101367.78
2022-10-22T18:10:22.261Z,101367.78
2022-10-22T18:14:24.856Z,101344.13
2022-10-22T18:18:24.622Z,101340.47
2022-10-22T18:22:24.246Z,101360.06
2022-10-22T18:26:26.701Z,101356.47
2022-10-22T18:30:28.939Z,101352.88
2022-10-22T18:34:29.991Z,101338.28
2022-10-22T18:38:29.595Z,101343.81
2022-10-22T18:42:33.712Z,101346.66
2022-10-22T18:46:38.759Z,101338.03
2022-10-22T18:50:38.375Z,101346.72
2022-10-22T18:54:37.997Z,101341.38
2022-10-22T18:58:39.769Z,101324.78
2022-10-22T19:02:42.713Z,101348.91
2022-10-22T19:06:45.728Z,101363.72
2022-10-22T19:10:45.832Z,101341.88
2022-10-22T19:14:45.443Z,101324.84
2022-10-22T19:18:47.737Z,101340.09
2022-10-22T19:22:47.332Z,101315.69
2022-10-22T19:26:47.881Z,101324.44
2022-10-22T19:30:47.523Z,101346.25
2022-10-22T19:34:49.430Z,101354.03
2022-10-22T19:38:50.657Z,101342.44
2022-10-22T19:42:51.042Z,101350.31
2022-10-22T19:46:51.006Z,101305.94
2022-10-22T19:50:53.023Z,101336.59
2022-10-22T19:54:52.705Z,101342.19
2022-10-22T19:58:51.769Z,101332.59
2022-10-22T20:02:51.367Z,101329.69
2022-10-22T20:06:53.594Z,101327.75
2022-10-22T20:10:53.126Z,101340.22
2022-10-22T20:14:53.601Z,101347.94
2022-10-22T20:18:53.693Z,101349.56
2022-10-22T20:22:56.168Z,101350.28
2022-10-22T20:26:55.812Z,101313.00
2022-10-22T20:30:55.520Z,101323.84
2022-10-22T20:34:55.431Z,101315.06
2022-10-22T20:39:02.691Z,101346.75
2022-10-22T20:43:02.508Z,101345.94
2022-10-22T20:47:02.085Z,101316.13
2022-10-22T20:51:04.211Z,101312.84
2022-10-22T20:55:06.699Z,101326.00
2022-10-22T20:59:08.008Z,101310.25
2022-10-22T21:03:07.684Z,101320.88
2022-10-22T21:07:07.337Z,101304.25
2022-10-22T21:11:09.280Z,101299.88
2022-10-22T21:15:12.473Z,101313.75
2022-10-22T21:19:12.464Z,101315.25
2022-10-22T21:23:12.214Z,101300.97
2022-10-22T21:27:14.084Z,101295.63
2022-10-22T21:31:20.138Z,101300.41
2022-10-22T21:35:20.106Z,101288.34
2022-10-22T21:39:19.731Z,101275.22
2022-10-22T21:43:21.740Z,101270.00
2022-10-22T21:47:21.344Z,101277.91
2022-10-22T21:51:22.324Z,101277.06
2022-10-22T21:55:21.413Z,101275.16
2022-10-22T21:59:23.164Z,101289.59
2022-10-22T22:03:23.042Z,101289.31
2022-10-22T22:07:23.130Z,101298.88
2022-10-22T22:11:25.348Z,101296.19
2022-10-22T22:15:28.142Z,101284.75
2022-10-22T22:19:27.693Z,101256.06
2022-10-22T22:23:27.718Z,101281.81
2022-10-22T22:27:27.271Z,101266.88
2022-10-22T22:31:31.675Z,101283.53
2022-10-22T22:35:31.547Z,101273.03
2022-10-22T22:39:31.473Z,101276.38
2022-10-22T22:43:31.050Z,101280.06
2022-10-22T22:47:33.525Z,101264.28
2022-10-22T22:51:32.713Z,101265.25
2022-10-22T22:55:32.801Z,101255.75
2022-10-22T22:59:31.961Z,101247.19
2022-10-22T23:03:33.715Z,101229.63
2022-10-22T23:07:33.385Z,101220.91
2022-10-22T23:11:33.014Z,101238.44
2022-10-22T23:15:32.689Z,101229.72
2022-10-22T23:19:34.587Z,101205.22
2022-10-22T23:23:34.638Z,101238.53
2022-10-22T23:27:34.182Z,101224.53
2022-10-22T23:31:34.086Z,101178.09
2022-10-22T23:35:35.924Z,101241.19
2022-10-22T23:39:35.606Z,101246.47
2022-10-22T23:43:37.418Z,101230.69
2022-10-22T23:47:37.499Z,101237.69
2022-10-22T23:51:40.402Z,101238.56
2022-10-22T23:55:42.957Z,101248.22
2022-10-22T23:59:42.753Z,101250.84
